createdAt,value
2023-04-07T00:00:16.713Z,79.7
2023-04-07T00:01:17.313Z,79.4
2023-04-07T00:02:17.320Z,79.6
2023-04-07T00:03:17.192Z,79.6
2023-04-07T00:04:17.029Z,79.5
2023-04-07T00:05:16.694Z,79.5
2023-04-07T00:06:17.232Z,79.5
2023-04-07T00:07:16.794Z,79.3
2023-04-07T00:08:17.367Z,79.3
2023-04-07T00:09:16.923Z,79.2
2023-04-07T00:10:17.497Z,79.2
2023-04-07T00:11:17.066Z,79.3
2023-04-07T00:12:16.957Z,79.4
2023-04-07T00:13:17.521Z,79.4
2023-04-07T00:14:17.069Z,79.3
2023-04-07T00:15:16.687Z,79.3
2023-04-07T00:16:17.278Z,79.3
2023-04-07T00:17:16.866Z,79.2
2023-04-07T00:18:17.426Z,79.2
2023-04-07T00:19:16.990Z,79.3
2023-04-07T00:20:16.555Z,79.3
2023-04-07T00:21:17.096Z,79.2
2023-04-07T00:22:17.010Z,79.4
2023-04-07T00:23:16.580Z,79.8
2023-04-07T00:24:34.132Z,80.2
2023-04-07T00:25:17.234Z,80.2
2023-04-07T00:26:16.785Z,80.4
2023-04-07T00:27:17.332Z,80.7
2023-04-07T00:28:16.929Z,80.7
2023-04-07T00:29:17.532Z,80.7
2023-04-07T00:30:17.055Z,80.7
2023-04-07T00:31:16.887Z,80.5
2023-04-07T00:32:16.565Z,80.4
2023-04-07T00:33:17.216Z,80.5
2023-04-07T00:34:16.818Z,80.4
2023-04-07T00:35:17.364Z,80.4
2023-04-07T00:36:16.940Z,80.6
2023-04-07T00:37:17.506Z,80.6
2023-04-07T00:38:17.047Z,80.6
2023-04-07T00:39:16.632Z,80.6
2023-04-07T00:40:17.193Z,80.5
2023-04-07T00:41:16.729Z,80.5
2023-04-07T00:42:17.480Z,80.5
2023-04-07T00:43:17.020Z,80.9
2023-04-07T00:44:16.578Z,81.1
2023-04-07T00:45:17.150Z,81.1
2023-04-07T00:46:16.766Z,80.9
2023-04-07T00:47:17.372Z,80.9
2023-04-07T00:48:16.898Z,80.9
2023-04-07T00:49:17.516Z,81.0
2023-04-07T00:50:17.091Z,80.8
2023-04-07T00:51:16.688Z,80.7
2023-04-07T00:52:16.580Z,80.6
2023-04-07T00:53:17.461Z,80.6
2023-04-07T00:54:17.301Z,80.5
2023-04-07T00:55:16.873Z,80.6
2023-04-07T00:56:17.420Z,80.8
2023-04-07T00:57:16.979Z,81.1
2023-04-07T00:58:16.564Z,81.1
2023-04-07T00:59:17.110Z,81.1
2023-04-07T01:00:16.674Z,81.1
2023-04-07T01:01:17.318Z,81.0
2023-04-07T01:02:17.305Z,81.0
2023-04-07T01:03:17.478Z,81.3
2023-04-07T01:04:17.617Z,81.2
2023-04-07T01:05:17.275Z,81.2
2023-04-07T01:06:16.829Z,81.2
2023-04-07T01:07:17.417Z,81.4
2023-04-07T01:08:16.959Z,81.4
2023-04-07T01:09:17.604Z,81.4
2023-04-07T01:10:17.170Z,81.2
2023-04-07T01:11:16.731Z,81.2
2023-04-07T01:12:16.980Z,82.1
2023-04-07T01:13:16.500Z,81.8
2023-04-07T01:14:17.048Z,81.6
2023-04-07T01:15:16.603Z,81.8
2023-04-07T01:16:17.270Z,81.7
2023-04-07T01:17:16.894Z,81.7
2023-04-07T01:18:17.457Z,81.9
2023-04-07T01:19:17.017Z,82.2
2023-04-07T01:20:16.600Z,82.3
2023-04-07T01:21:17.184Z,82.6
2023-04-07T01:22:16.890Z,82.6
2023-04-07T01:23:17.440Z,82.5
2023-04-07T01:24:17.005Z,82.2
2023-04-07T01:25:16.553Z,82.1
2023-04-07T01:26:17.104Z,82.0
2023-04-07T01:27:16.626Z,81.9
2023-04-07T01:28:17.165Z,81.9
2023-04-07T01:29:16.685Z,82.2
2023-04-07T01:30:17.287Z,82.5
2023-04-07T01:31:16.904Z,82.4
2023-04-07T01:32:16.888Z,82.3
2023-04-07T01:33:17.457Z,82.3
2023-04-07T01:34:17.028Z,82.1
2023-04-07T01:35:16.569Z,82.1
2023-04-07T01:36:17.132Z,82.1
2023-04-07T01:37:16.903Z,82.5
2023-04-07T01:38:17.495Z,82.9
2023-04-07T01:39:17.023Z,82.7
2023-04-07T01:40:16.573Z,82.8
2023-04-07T01:41:17.112Z,83.3
2023-04-07T01:42:16.856Z,83.6
2023-04-07T01:43:17.451Z,83.4
2023-04-07T01:44:17.019Z,83.3
2023-04-07T01:45:16.604Z,83.1
2023-04-07T01:46:17.198Z,83.2
2023-04-07T01:47:16.868Z,83.5
2023-04-07T01:48:17.542Z,83.9
2023-04-07T01:49:17.089Z,83.9
2023-04-07T01:50:16.662Z,83.8
2023-04-07T01:51:17.249Z,83.7
2023-04-07T01:52:17.451Z,83.6
2023-04-07T01:53:17.007Z,83.5
2023-04-07T01:54:16.571Z,83.5
2023-04-07T01:55:17.127Z,83.5
2023-04-07T01:56:16.751Z,83.6
2023-04-07T01:57:17.310Z,83.6
2023-04-07T01:58:16.853Z,83.7
2023-04-07T01:59:17.401Z,83.7
2023-04-07T02:00:16.998Z,83.8
2023-04-07T02:01:16.658Z,83.4
2023-04-07T02:02:17.559Z,83.5
2023-04-07T02:03:17.443Z,83.6
2023-04-07T02:04:17.125Z,83.3
2023-04-07T02:05:16.711Z,83.1
2023-04-07T02:06:17.251Z,83.2
2023-04-07T02:07:16.858Z,83.0
2023-04-07T02:08:17.410Z,83.1
2023-04-07T02:09:16.944Z,83.0
2023-04-07T02:10:17.504Z,83.0
2023-04-07T02:11:17.064Z,82.9
2023-04-07T02:12:16.730Z,82.8
2023-04-07T02:13:17.392Z,82.8
2023-04-07T02:14:17.117Z,82.9
2023-04-07T02:15:16.720Z,83.1
2023-04-07T02:16:17.375Z,82.9
2023-04-07T02:17:16.961Z,82.8
2023-04-07T02:18:16.515Z,82.8
2023-04-07T02:19:17.084Z,82.9
2023-04-07T02:20:16.664Z,82.9
2023-04-07T02:21:17.195Z,82.8
2023-04-07T02:22:17.115Z,82.7
2023-04-07T02:23:16.660Z,82.7
2023-04-07T02:24:17.177Z,82.8
2023-04-07T02:25:16.707Z,82.7
2023-04-07T02:26:17.308Z,82.9
2023-04-07T02:27:16.864Z,83.3
2023-04-07T02:28:17.419Z,83.6
2023-04-07T02:29:17.013Z,83.6
2023-04-07T02:30:16.596Z,83.7
2023-04-07T02:31:17.197Z,83.7
2023-04-07T02:32:16.861Z,83.7
2023-04-07T02:33:17.425Z,83.7
2023-04-07T02:34:16.954Z,83.6
2023-04-07T02:35:17.520Z,83.4
2023-04-07T02:36:17.084Z,83.3
2023-04-07T02:37:16.625Z,83.1
2023-04-07T02:38:17.160Z,82.9
2023-04-07T02:39:16.737Z,83.0
2023-04-07T02:40:17.279Z,83.1
2023-04-07T02:41:16.873Z,83.0
2023-04-07T02:42:16.773Z,83.2
2023-04-07T02:43:17.325Z,83.3
2023-04-07T02:44:16.906Z,83.7
2023-04-07T02:45:17.466Z,83.5
2023-04-07T02:46:17.120Z,83.5
2023-04-07T02:47:16.668Z,83.4
2023-04-07T02:48:17.207Z,83.3
2023-04-07T02:49:16.762Z,83.3
2023-04-07T02:50:17.300Z,83.5
2023-04-07T02:51:16.856Z,83.6
2023-04-07T02:52:17.406Z,83.6
2023-04-07T02:53:16.979Z,83.6
2023-04-07T02:54:16.566Z,83.6
2023-04-07T02:55:17.144Z,83.5
2023-04-07T02:56:16.714Z,83.6
2023-04-07T02:57:17.279Z,83.6
2023-04-07T02:58:16.850Z,84.0
2023-04-07T02:59:17.432Z,83.9
2023-04-07T03:00:17.010Z,83.9
2023-04-07T03:01:16.632Z,83.8
2023-04-07T03:02:17.033Z,84.0
2023-04-07T03:03:17.023Z,84.0
2023-04-07T03:04:16.921Z,84.0
2023-04-07T03:05:16.576Z,83.9
2023-04-07T03:06:17.175Z,83.5
2023-04-07T03:07:16.733Z,83.4
2023-04-07T03:08:17.281Z,83.5
2023-04-07T03:09:16.834Z,83.4
2023-04-07T03:10:17.413Z,83.4
2023-04-07T03:11:17.044Z,83.3
2023-04-07T03:12:16.849Z,83.5
2023-04-07T03:13:17.390Z,83.5
2023-04-07T03:14:16.947Z,83.7
2023-04-07T03:15:19.177Z,83.9
2023-04-07T03:16:17.016Z,84.0
2023-04-07T03:17:16.554Z,83.9
2023-04-07T03:18:17.151Z,84.1
2023-04-07T03:19:16.702Z,84.0
2023-04-07T03:20:17.363Z,84.0
2023-04-07T03:21:16.934Z,84.1
2023-04-07T03:22:17.487Z,84.1
2023-04-07T03:23:17.036Z,84.2
2023-04-07T03:24:16.587Z,84.1
2023-04-07T03:25:17.138Z,84.0
2023-04-07T03:26:16.697Z,83.8
2023-04-07T03:27:17.267Z,83.9
2023-04-07T03:28:16.813Z,83.9
2023-04-07T03:29:17.388Z,83.9
2023-04-07T03:30:16.959Z,84.0
2023-04-07T03:31:16.641Z,84.1
2023-04-07T03:32:17.263Z,84.0
2023-04-07T03:33:16.809Z,84.0
2023-04-07T03:34:17.356Z,84.0
2023-04-07T03:35:16.927Z,83.9
2023-04-07T03:36:17.592Z,83.9
2023-04-07T03:37:17.176Z,83.9
2023-04-07T03:38:16.713Z,83.8
2023-04-07T03:39:17.278Z,83.7
2023-04-07T03:40:16.901Z,83.6
2023-04-07T03:41:17.454Z,83.5
2023-04-07T03:42:17.524Z,83.5
2023-04-07T03:43:17.079Z,83.5
2023-04-07T03:44:16.646Z,83.5
2023-04-07T03:45:17.193Z,83.6
2023-04-07T03:46:16.807Z,83.8
2023-04-07T03:47:17.364Z,84.1
2023-04-07T03:48:16.925Z,84.2
2023-04-07T03:49:17.519Z,84.3
2023-04-07T03:50:17.087Z,84.2
2023-04-07T03:51:16.632Z,84.0
2023-04-07T03:52:17.062Z,83.6
2023-04-07T03:53:16.629Z,83.6
2023-04-07T03:54:17.252Z,83.5
2023-04-07T03:55:16.820Z,83.7
2023-04-07T03:56:17.364Z,83.8
2023-04-07T03:57:16.954Z,83.8
2023-04-07T03:58:17.492Z,83.8
2023-04-07T03:59:17.047Z,83.7
2023-04-07T04:00:16.609Z,83.7
2023-04-07T04:01:17.187Z,83.6
2023-04-07T04:02:17.185Z,83.7
2023-04-07T04:03:17.002Z,83.4
2023-04-07T04:04:17.282Z,83.3
2023-04-07T04:05:17.058Z,83.3
2023-04-07T04:06:16.613Z,84.2
2023-04-07T04:07:17.184Z,84.4
2023-04-07T04:08:16.729Z,84.5
2023-04-07T04:09:17.292Z,84.4
2023-04-07T04:10:16.847Z,84.3
2023-04-07T04:11:17.359Z,84.4
2023-04-07T04:12:17.382Z,83.8
2023-04-07T04:13:16.960Z,84.0
2023-04-07T04:14:17.571Z,84.2
2023-04-07T04:15:17.122Z,84.2
2023-04-07T04:16:16.728Z,83.9
2023-04-07T04:17:17.307Z,83.8
2023-04-07T04:18:16.869Z,83.8
2023-04-07T04:19:17.444Z,83.8
2023-04-07T04:20:17.006Z,83.7
2023-04-07T04:21:16.589Z,83.7
2023-04-07T04:22:17.275Z,83.6
2023-04-07T04:23:16.843Z,83.8
2023-04-07T04:24:17.413Z,83.9
2023-04-07T04:25:16.967Z,83.5
2023-04-07T04:26:17.524Z,83.5
2023-04-07T04:27:17.069Z,83.4
2023-04-07T04:28:16.616Z,83.5
2023-04-07T04:29:17.139Z,83.6
2023-04-07T04:30:16.710Z,83.8
2023-04-07T04:31:17.349Z,83.7
2023-04-07T04:32:17.048Z,83.6
2023-04-07T04:33:16.718Z,83.7
2023-04-07T04:34:17.276Z,83.9
2023-04-07T04:35:16.846Z,84.1
2023-04-07T04:36:17.512Z,83.8
2023-04-07T04:37:17.064Z,83.6
2023-04-07T04:38:16.611Z,83.5
2023-04-07T04:39:17.144Z,83.5
2023-04-07T04:40:16.696Z,83.4
2023-04-07T04:41:17.239Z,83.4
2023-04-07T04:42:16.859Z,83.2
2023-04-07T04:43:17.446Z,83.2
2023-04-07T04:44:16.997Z,83.1
2023-04-07T04:45:16.561Z,83.1
2023-04-07T04:46:17.090Z,83.2
2023-04-07T04:47:16.797Z,83.5
2023-04-07T04:48:17.386Z,83.6
2023-04-07T04:49:16.957Z,83.7
2023-04-07T04:50:17.512Z,83.5
2023-04-07T04:51:17.041Z,83.5
2023-04-07T04:52:17.041Z,83.4
2023-04-07T04:53:16.611Z,83.5
2023-04-07T04:54:17.171Z,83.5
2023-04-07T04:55:16.755Z,83.4
2023-04-07T04:56:17.309Z,83.4
2023-04-07T04:57:16.893Z,83.3
2023-04-07T04:58:17.421Z,83.3
2023-04-07T04:59:16.991Z,82.8
2023-04-07T05:00:16.558Z,82.9
2023-04-07T05:01:17.219Z,82.9
2023-04-07T05:02:17.737Z,82.7
2023-04-07T05:03:17.856Z,82.7
2023-04-07T05:04:17.033Z,82.8
2023-04-07T05:05:16.884Z,82.7
2023-04-07T05:06:17.500Z,82.5
2023-04-07T05:07:17.052Z,82.3
2023-04-07T05:08:16.627Z,82.3
2023-04-07T05:09:17.180Z,82.0
2023-04-07T05:10:16.735Z,81.6
2023-04-07T05:11:17.284Z,81.5
2023-04-07T05:12:17.214Z,81.8
2023-04-07T05:13:16.763Z,81.1
2023-04-07T05:14:17.345Z,81.3
2023-04-07T05:15:16.898Z,81.2
2023-04-07T05:16:17.528Z,81.0
2023-04-07T05:17:17.077Z,80.4
2023-04-07T05:18:16.653Z,80.4
2023-04-07T05:19:17.219Z,80.3
2023-04-07T05:20:16.768Z,80.3
2023-04-07T05:21:17.323Z,80.0
2023-04-07T05:22:16.976Z,80.1
2023-04-07T05:23:16.519Z,79.3
2023-04-07T05:24:17.104Z,79.2
2023-04-07T05:25:16.680Z,79.6
2023-04-07T05:26:17.254Z,79.4
2023-04-07T05:27:16.819Z,78.7
2023-04-07T05:28:17.393Z,77.9
2023-04-07T05:29:16.960Z,77.1
2023-04-07T05:30:17.536Z,77.3
2023-04-07T05:31:17.164Z,77.0
2023-04-07T05:32:17.114Z,77.4
2023-04-07T05:33:16.652Z,77.3
2023-04-07T05:34:17.185Z,76.9
2023-04-07T05:35:16.731Z,76.0
2023-04-07T05:36:17.350Z,76.7
2023-04-07T05:37:16.899Z,76.5
2023-04-07T05:38:17.480Z,76.4
2023-04-07T05:39:17.025Z,77.0
2023-04-07T05:40:16.589Z,76.8
2023-04-07T05:41:17.164Z,77.1
2023-04-07T05:42:16.980Z,77.3
2023-04-07T05:43:16.576Z,77.2
2023-04-07T05:44:17.149Z,76.7
2023-04-07T05:45:16.705Z,76.6
2023-04-07T05:46:17.454Z,76.3
2023-04-07T05:47:17.018Z,76.3
2023-04-07T05:48:16.584Z,76.2
2023-04-07T05:49:20.900Z,76.5
2023-04-07T05:50:17.493Z,76.3
2023-04-07T05:51:17.051Z,76.5
2023-04-07T05:52:17.090Z,76.3
2023-04-07T05:53:16.670Z,76.0
2023-04-07T05:54:17.274Z,76.2
2023-04-07T05:55:16.838Z,76.5
2023-04-07T05:56:17.389Z,76.9
2023-04-07T05:57:16.930Z,77.2
2023-04-07T05:58:17.486Z,77.2
2023-04-07T05:59:17.042Z,76.9
2023-04-07T06:00:16.611Z,76.6
2023-04-07T06:01:17.130Z,76.2
2023-04-07T06:02:16.988Z,75.3
2023-04-07T06:03:16.955Z,75.9
2023-04-07T06:04:16.547Z,75.7
2023-04-07T06:05:17.265Z,75.8
2023-04-07T06:06:16.850Z,76.0
2023-04-07T06:07:17.386Z,75.4
2023-04-07T06:08:16.977Z,75.6
2023-04-07T06:09:16.529Z,75.5
2023-04-07T06:10:17.071Z,75.0
2023-04-07T06:11:16.607Z,74.5
2023-04-07T06:12:17.338Z,73.4
2023-04-07T06:13:16.897Z,73.7
2023-04-07T06:14:17.470Z,74.2
2023-04-07T06:15:17.017Z,74.1
2023-04-07T06:16:19.609Z,72.9
2023-04-07T06:17:17.346Z,73.3
2023-04-07T06:18:16.885Z,73.7
2023-04-07T06:19:17.478Z,71.8
2023-04-07T06:20:17.148Z,72.1
2023-04-07T06:21:16.716Z,72.3
2023-04-07T06:22:17.493Z,72.4
2023-04-07T06:23:17.037Z,71.3
2023-04-07T06:24:16.611Z,70.9
2023-04-07T06:25:17.143Z,71.4
2023-04-07T06:26:16.719Z,70.2
2023-04-07T06:27:17.312Z,70.3
2023-04-07T06:28:16.837Z,70.2
2023-04-07T06:29:17.667Z,70.0
2023-04-07T06:30:17.240Z,70.0
2023-04-07T06:32:17.299Z,69.8
2023-04-07T06:33:16.879Z,68.0
2023-04-07T06:34:17.431Z,67.6
2023-04-07T06:35:17.023Z,68.1
2023-04-07T06:36:16.573Z,66.8
2023-04-07T06:37:17.382Z,66.9
2023-04-07T06:38:16.963Z,66.7
2023-04-07T06:39:17.519Z,65.8
2023-04-07T06:40:17.059Z,63.7
2023-04-07T06:41:16.647Z,63.3
2023-04-07T06:42:16.647Z,64.7
2023-04-07T06:43:17.171Z,63.9
2023-04-07T06:44:16.736Z,64.2
2023-04-07T06:45:17.315Z,61.2
2023-04-07T06:46:16.949Z,62.8
2023-04-07T06:47:17.498Z,61.6
2023-04-07T06:48:17.097Z,59.4
2023-04-07T06:49:16.633Z,61.5
2023-04-07T06:50:17.183Z,60.5
2023-04-07T06:51:16.744Z,60.1
2023-04-07T06:52:17.491Z,59.3
2023-04-07T06:53:17.062Z,60.4
2023-04-07T06:54:16.615Z,59.9
2023-04-07T06:55:17.177Z,59.2
2023-04-07T06:56:16.724Z,60.1
2023-04-07T06:57:17.315Z,59.6
2023-04-07T06:58:17.282Z,59.2
2023-04-07T06:59:16.908Z,57.8
2023-04-07T07:00:17.485Z,58.1
2023-04-07T07:01:17.074Z,58.7
2023-04-07T07:02:17.233Z,59.2
2023-04-07T07:03:17.263Z,58.2
2023-04-07T07:04:17.201Z,58.1
2023-04-07T07:05:16.942Z,57.3
2023-04-07T07:06:17.507Z,56.5
2023-04-07T07:07:17.052Z,55.9
2023-04-07T07:08:16.600Z,56.2
2023-04-07T07:09:17.143Z,56.1
2023-04-07T07:10:16.699Z,55.0
2023-04-07T07:11:17.276Z,53.6
2023-04-07T07:12:17.068Z,55.2
2023-04-07T07:13:16.624Z,55.7
2023-04-07T07:14:17.172Z,53.9
2023-04-07T07:15:16.710Z,53.8
2023-04-07T07:16:17.472Z,53.4
2023-04-07T07:17:17.020Z,52.2
2023-04-07T07:18:16.581Z,54.2
2023-04-07T07:19:17.103Z,56.1
2023-04-07T07:20:16.657Z,56.5
2023-04-07T07:21:17.207Z,54.8
2023-04-07T07:22:17.187Z,55.0
2023-04-07T07:23:16.709Z,56.9
2023-04-07T07:24:17.243Z,57.0
2023-04-07T07:25:16.772Z,56.1
2023-04-07T07:26:17.346Z,55.6
2023-04-07T07:27:16.929Z,55.9
2023-04-07T07:28:17.501Z,54.3
2023-04-07T07:29:17.276Z,52.6
2023-04-07T07:30:16.915Z,53.5
2023-04-07T07:31:17.572Z,52.8
2023-04-07T07:32:16.779Z,51.6
2023-04-07T07:33:17.327Z,50.7
2023-04-07T07:34:16.869Z,50.6
2023-04-07T07:35:17.430Z,49.6
2023-04-07T07:36:17.041Z,49.9
2023-04-07T07:37:16.619Z,50.9
2023-04-07T07:38:17.191Z,51.4
2023-04-07T07:39:16.741Z,52.0
2023-04-07T07:40:17.336Z,52.0
2023-04-07T07:41:16.895Z,51.9
2023-04-07T07:42:17.381Z,50.4
2023-04-07T07:43:16.914Z,50.9
2023-04-07T07:44:17.485Z,51.0
2023-04-07T07:45:17.087Z,48.0
2023-04-07T07:46:16.684Z,49.0
2023-04-07T07:47:17.291Z,49.6
2023-04-07T07:48:16.836Z,50.8
2023-04-07T07:49:17.362Z,50.0
2023-04-07T07:50:16.933Z,49.5
2023-04-07T07:51:17.484Z,48.8
2023-04-07T07:52:17.163Z,47.9
2023-04-07T07:53:16.720Z,47.9
2023-04-07T07:54:17.287Z,47.8
2023-04-07T07:55:16.861Z,49.5
2023-04-07T07:56:17.409Z,49.8
2023-04-07T07:57:16.964Z,50.7
2023-04-07T07:58:17.513Z,50.6
2023-04-07T07:59:18.152Z,49.5
2023-04-07T08:00:16.728Z,48.3
2023-04-07T08:01:17.286Z,48.0
2023-04-07T08:02:17.167Z,47.8
2023-04-07T08:03:16.994Z,48.0
2023-04-07T08:04:16.718Z,47.2
2023-04-07T08:05:17.331Z,45.1
2023-04-07T08:06:16.866Z,45.8
2023-04-07T08:07:17.427Z,46.3
2023-04-07T08:08:16.970Z,45.1
2023-04-07T08:09:16.521Z,44.4
2023-04-07T08:10:17.119Z,44.9
2023-04-07T08:11:16.657Z,44.9
2023-04-07T08:12:17.112Z,45.7
2023-04-07T08:13:16.663Z,46.0
2023-04-07T08:14:17.217Z,45.5
2023-04-07T08:15:16.763Z,45.0
2023-04-07T08:16:17.537Z,47.2
2023-04-07T08:17:17.084Z,46.6
2023-04-07T08:18:16.639Z,46.1
2023-04-07T08:19:17.195Z,45.7
2023-04-07T08:20:16.739Z,46.6
2023-04-07T08:21:17.288Z,47.2
2023-04-07T08:22:17.061Z,47.4
2023-04-07T08:23:16.650Z,46.4
2023-04-07T08:24:17.221Z,46.9
2023-04-07T08:25:16.809Z,46.3
2023-04-07T08:26:17.389Z,47.3
2023-04-07T08:27:16.940Z,47.2
2023-04-07T08:28:17.487Z,46.6
2023-04-07T08:29:17.030Z,45.5
2023-04-07T08:30:16.592Z,45.6
2023-04-07T08:31:17.181Z,46.3
2023-04-07T08:32:16.922Z,46.2
2023-04-07T08:33:17.497Z,45.7
2023-04-07T08:34:17.087Z,46.3
2023-04-07T08:35:16.667Z,45.4
2023-04-07T08:36:17.342Z,46.4
2023-04-07T08:37:16.905Z,46.6
2023-04-07T08:38:17.449Z,46.9
2023-04-07T08:39:17.018Z,46.5
2023-04-07T08:40:16.566Z,48.2
2023-04-07T08:41:17.110Z,47.6
2023-04-07T08:42:16.880Z,47.9
2023-04-07T08:43:17.403Z,48.8
2023-04-07T08:44:16.938Z,48.8
2023-04-07T08:45:17.580Z,49.3
2023-04-07T08:46:17.154Z,50.3
2023-04-07T08:47:16.902Z,50.6
2023-04-07T08:48:17.481Z,50.0
2023-04-07T08:49:17.058Z,49.1
2023-04-07T08:50:16.668Z,48.4
2023-04-07T08:51:17.247Z,49.0
2023-04-07T08:52:17.377Z,49.1
2023-04-07T08:53:16.953Z,48.7
2023-04-07T08:54:17.529Z,49.7
2023-04-07T08:55:17.093Z,52.4
2023-04-07T08:56:16.647Z,52.3
2023-04-07T08:57:17.175Z,51.6
2023-04-07T08:58:16.720Z,49.9
2023-04-07T08:59:17.246Z,50.7
2023-04-07T09:00:16.831Z,50.4
2023-04-07T09:01:17.609Z,51.0
2023-04-07T09:02:17.378Z,50.5
2023-04-07T09:03:17.076Z,50.1
2023-04-07T09:04:16.831Z,50.0
2023-04-07T09:05:17.445Z,51.1
2023-04-07T09:06:17.064Z,50.6
2023-04-07T09:07:16.627Z,50.2
2023-04-07T09:08:17.203Z,49.5
2023-04-07T09:09:16.764Z,48.8
2023-04-07T09:10:17.316Z,49.2
2023-04-07T09:11:16.868Z,48.7
2023-04-07T09:12:17.438Z,48.9
2023-04-07T09:13:16.978Z,48.9
2023-04-07T09:14:16.521Z,48.4
2023-04-07T09:15:17.102Z,48.8
2023-04-07T09:16:16.733Z,49.0
2023-04-07T09:17:17.297Z,49.1
2023-04-07T09:18:16.849Z,49.4
2023-04-07T09:19:17.417Z,49.8
2023-04-07T09:20:17.016Z,50.3
2023-04-07T09:21:16.540Z,52.0
2023-04-07T09:22:17.287Z,49.6
2023-04-07T09:23:16.835Z,48.7
2023-04-07T09:24:17.376Z,49.6
2023-04-07T09:25:17.046Z,48.8
2023-04-07T09:26:16.627Z,48.8
2023-04-07T09:27:17.826Z,49.2
2023-04-07T09:28:17.395Z,49.4
2023-04-07T09:29:16.981Z,49.0
2023-04-07T09:30:16.594Z,49.6
2023-04-07T09:31:17.187Z,49.5
2023-04-07T09:32:17.037Z,50.8
2023-04-07T09:33:16.601Z,50.4
2023-04-07T09:34:17.159Z,50.0
2023-04-07T09:35:16.718Z,49.8
2023-04-07T09:36:17.402Z,48.7
2023-04-07T09:37:16.985Z,48.7
2023-04-07T09:38:16.551Z,48.6
2023-04-07T09:39:17.113Z,47.6
2023-04-07T09:40:16.693Z,45.3
2023-04-07T09:41:17.500Z,45.8
2023-04-07T09:42:17.108Z,46.0
2023-04-07T09:43:16.681Z,46.4
2023-04-07T09:44:17.260Z,46.1
2023-04-07T09:45:34.367Z,45.7
2023-04-07T09:46:16.921Z,46.0
2023-04-07T09:47:17.471Z,45.6
2023-04-07T09:48:17.014Z,45.0
2023-04-07T09:49:16.554Z,44.5
2023-04-07T09:50:17.166Z,44.0
2023-04-07T09:51:16.753Z,43.5
2023-04-07T09:52:17.008Z,42.9
2023-04-07T09:53:16.659Z,43.7
2023-04-07T09:54:17.243Z,43.7
2023-04-07T09:55:16.861Z,43.1
2023-04-07T09:56:17.450Z,42.7
2023-04-07T09:57:17.004Z,42.2
2023-04-07T09:58:16.589Z,43.6
2023-04-07T09:59:17.205Z,41.5
2023-04-07T10:00:16.733Z,41.3
2023-04-07T10:01:17.391Z,40.7
2023-04-07T10:02:17.382Z,41.0
2023-04-07T10:03:17.101Z,41.0
2023-04-07T10:04:16.779Z,39.9
2023-04-07T10:05:17.348Z,41.4
2023-04-07T10:06:17.195Z,41.6
2023-04-07T10:07:16.768Z,41.7
2023-04-07T10:08:17.331Z,41.3
2023-04-07T10:09:16.892Z,41.2
2023-04-07T10:10:17.435Z,41.9
2023-04-07T10:11:16.948Z,41.5
2023-04-07T10:12:16.752Z,42.1
2023-04-07T10:13:17.312Z,40.4
2023-04-07T10:14:16.846Z,39.1
2023-04-07T10:15:17.472Z,40.9
2023-04-07T10:16:17.080Z,41.1
2023-04-07T10:17:16.681Z,41.2
2023-04-07T10:18:17.228Z,40.5
2023-04-07T10:19:16.796Z,40.4
2023-04-07T10:20:17.365Z,40.3
2023-04-07T10:21:16.911Z,39.3
2023-04-07T10:22:16.515Z,40.7
2023-04-07T10:23:17.076Z,39.9
2023-04-07T10:24:16.644Z,40.4
2023-04-07T10:25:17.211Z,39.3
2023-04-07T10:26:16.764Z,39.2
2023-04-07T10:27:17.336Z,38.7
2023-04-07T10:28:16.889Z,39.3
2023-04-07T10:29:17.457Z,39.3
2023-04-07T10:30:17.022Z,39.7
2023-04-07T10:31:16.666Z,38.7
2023-04-07T10:32:17.265Z,40.3
2023-04-07T10:33:16.816Z,40.9
2023-04-07T10:34:17.377Z,39.7
2023-04-07T10:35:17.048Z,38.7
2023-04-07T10:36:16.648Z,38.2
2023-04-07T10:37:17.168Z,39.0
2023-04-07T10:38:16.955Z,39.1
2023-04-07T10:39:16.554Z,39.0
2023-04-07T10:40:17.097Z,38.4
2023-04-07T10:41:16.642Z,40.2
2023-04-07T10:42:16.661Z,41.3
2023-04-07T10:43:17.215Z,39.5
2023-04-07T10:44:16.757Z,39.4
2023-04-07T10:45:17.326Z,38.7
2023-04-07T10:46:17.013Z,39.8
2023-04-07T10:47:16.649Z,38.9
2023-04-07T10:48:17.209Z,38.1
2023-04-07T10:49:19.215Z,37.2
2023-04-07T10:50:16.874Z,38.0
2023-04-07T10:51:17.450Z,40.1
2023-04-07T10:52:17.307Z,41.2
2023-04-07T10:53:16.851Z,40.9
2023-04-07T10:54:17.424Z,42.1
2023-04-07T10:55:16.995Z,42.1
2023-04-07T10:56:16.546Z,41.0
2023-04-07T10:57:17.274Z,41.1
2023-04-07T10:58:16.825Z,41.6
2023-04-07T10:59:17.412Z,40.4
2023-04-07T11:00:17.122Z,41.3
2023-04-07T11:01:16.805Z,41.5
2023-04-07T11:02:17.334Z,41.3
2023-04-07T11:03:17.211Z,40.4
2023-04-07T11:04:16.970Z,40.7
2023-04-07T11:05:16.567Z,43.2
2023-04-07T11:06:17.116Z,44.6
2023-04-07T11:07:16.778Z,45.5
2023-04-07T11:08:17.368Z,44.4
2023-04-07T11:09:16.962Z,43.5
2023-04-07T11:10:17.557Z,44.3
2023-04-07T11:11:17.104Z,43.5
2023-04-07T11:12:17.328Z,42.9
2023-04-07T11:13:16.867Z,43.4
2023-04-07T11:14:17.423Z,43.0
2023-04-07T11:15:16.982Z,42.1
2023-04-07T11:16:16.665Z,41.1
2023-04-07T11:17:17.228Z,42.5
2023-04-07T11:18:16.797Z,42.6
2023-04-07T11:19:17.484Z,40.6
2023-04-07T11:20:17.049Z,41.7
2023-04-07T11:21:16.625Z,41.2
2023-04-07T11:22:30.134Z,40.6
2023-04-07T11:23:17.121Z,40.4
2023-04-07T11:24:16.721Z,40.7
2023-04-07T11:25:17.289Z,43.1
2023-04-07T11:26:16.859Z,43.4
2023-04-07T11:27:17.436Z,42.1
2023-04-07T11:28:17.011Z,43.4
2023-04-07T11:29:16.540Z,43.3
2023-04-07T11:30:17.100Z,43.4
2023-04-07T11:31:16.705Z,44.1
2023-04-07T11:32:16.703Z,41.4
2023-04-07T11:33:17.257Z,41.2
2023-04-07T11:34:16.833Z,40.5
2023-04-07T11:35:17.405Z,40.3
2023-04-07T11:36:17.024Z,41.8
2023-04-07T11:37:16.612Z,45.0
2023-04-07T11:38:17.180Z,44.3
2023-04-07T11:39:16.736Z,43.7
2023-04-07T11:40:17.330Z,45.1
2023-04-07T11:41:16.883Z,44.6
2023-04-07T11:42:17.447Z,43.5
2023-04-07T11:43:17.009Z,42.7
2023-04-07T11:44:16.581Z,42.8
2023-04-07T11:45:17.196Z,44.1
2023-04-07T11:46:16.857Z,43.5
2023-04-07T11:47:17.418Z,44.8
2023-04-07T11:48:16.985Z,46.7
2023-04-07T11:49:16.523Z,46.8
2023-04-07T11:50:17.092Z,47.9
2023-04-07T11:51:16.676Z,48.5
2023-04-07T11:52:17.496Z,47.7
2023-04-07T11:53:17.034Z,48.5
2023-04-07T11:54:16.591Z,48.7
2023-04-07T11:55:17.161Z,48.1
2023-04-07T11:56:16.771Z,48.6
2023-04-07T11:57:17.377Z,48.8
2023-04-07T11:58:16.940Z,48.9
2023-04-07T11:59:17.513Z,48.8
2023-04-07T12:00:17.066Z,49.2
2023-04-07T12:01:16.624Z,49.5
2023-04-07T12:02:17.558Z,49.9
2023-04-07T12:03:17.452Z,50.3
2023-04-07T12:04:17.432Z,50.0
2023-04-07T12:05:17.158Z,50.5
2023-04-07T12:06:16.712Z,49.7
2023-04-07T12:07:17.249Z,49.8
2023-04-07T12:08:16.822Z,50.4
2023-04-07T12:09:17.398Z,51.5
2023-04-07T12:10:16.989Z,51.3
2023-04-07T12:11:16.538Z,51.2
2023-04-07T12:12:17.426Z,49.6
2023-04-07T12:13:16.975Z,49.8
2023-04-07T12:14:16.532Z,49.6
2023-04-07T12:15:17.137Z,49.1
2023-04-07T12:16:16.775Z,50.2
2023-04-07T12:17:17.393Z,51.2
2023-04-07T12:19:17.025Z,49.8
2023-04-07T12:20:16.668Z,49.8
2023-04-07T12:21:17.243Z,50.1
2023-04-07T12:22:16.859Z,50.8
2023-04-07T12:23:17.440Z,51.2
2023-04-07T12:24:16.992Z,51.6
2023-04-07T12:25:16.569Z,51.7
2023-04-07T12:26:17.129Z,51.8
2023-04-07T12:27:16.712Z,51.5
2023-04-07T12:28:17.263Z,50.5
2023-04-07T12:29:16.804Z,51.4
2023-04-07T12:30:17.364Z,50.7
2023-04-07T12:31:16.901Z,50.9
2023-04-07T12:32:16.864Z,50.8
2023-04-07T12:33:17.430Z,50.6
2023-04-07T12:34:17.000Z,50.7
2023-04-07T12:35:16.584Z,51.4
2023-04-07T12:36:17.122Z,51.8
2023-04-07T12:37:16.696Z,51.4
2023-04-07T12:38:17.292Z,51.0
2023-04-07T12:39:16.929Z,51.3
2023-04-07T12:40:17.495Z,51.0
2023-04-07T12:41:17.091Z,51.0
2023-04-07T12:42:17.029Z,51.1
2023-04-07T12:43:16.568Z,51.3
2023-04-07T12:44:17.153Z,51.8
2023-04-07T12:45:16.711Z,51.3
2023-04-07T12:46:17.391Z,51.6
2023-04-07T12:47:16.951Z,51.1
2023-04-07T12:48:17.549Z,50.8
2023-04-07T12:49:17.122Z,50.8
2023-04-07T12:50:16.684Z,51.2
2023-04-07T12:51:17.228Z,51.5
2023-04-07T12:52:16.942Z,51.8
2023-04-07T12:53:16.591Z,51.8
2023-04-07T12:54:17.145Z,52.4
2023-04-07T12:55:16.704Z,51.6
2023-04-07T12:56:17.273Z,51.4
2023-04-07T12:57:16.843Z,51.8
2023-04-07T12:58:17.386Z,52.1
2023-04-07T12:59:16.949Z,51.1
2023-04-07T13:00:17.519Z,51.2
2023-04-07T13:01:17.529Z,51.5
2023-04-07T13:02:17.113Z,51.8
2023-04-07T13:03:17.264Z,51.9
2023-04-07T13:04:17.354Z,51.5
2023-04-07T13:05:17.044Z,52.0
2023-04-07T13:06:16.834Z,52.3
2023-04-07T13:07:17.578Z,52.6
2023-04-07T13:08:17.350Z,53.2
2023-04-07T13:09:17.153Z,52.9
2023-04-07T13:10:16.871Z,52.2
2023-04-07T13:11:17.439Z,51.8
2023-04-07T13:12:17.258Z,51.8
2023-04-07T13:13:16.805Z,51.6
2023-04-07T13:14:17.345Z,51.8
2023-04-07T13:15:16.957Z,51.3
2023-04-07T13:16:17.616Z,51.6
2023-04-07T13:17:17.203Z,52.0
2023-04-07T13:18:16.765Z,51.5
2023-04-07T13:19:17.389Z,51.8
2023-04-07T13:20:20.861Z,51.4